GBSPN EGNH-EGCV

Flight info

Callsign GBSPN
Flight time 0h 28m
Altitude 3000
Route DCT
Aircraft P28R/L-V/N

Departure

Time 2026-05-01 13:46
Airport Blackpool Airport (EGNH)

Arrival

Time 2026-05-01 14:14
Airport Sleap Airfield (EGCV)
Time Latitude Longitude Altitude Speed Heading
2026-05-01 13:18 53.77853 -3.03833 33 ft 0 kts 178°
2026-05-01 13:31 53.77832 -3.03834 33 ft 7 kts 184°
2026-05-01 13:31 53.77593 -3.03551 32 ft 22 kts 167°
2026-05-01 13:32 53.77389 -3.03516 32 ft 12 kts 68°
2026-05-01 13:33 53.77406 -3.03079 32 ft 14 kts 163°
2026-05-01 13:33 53.77306 -3.03029 31 ft 0 kts 216°
2026-05-01 13:41 53.77304 -3.03031 31 ft 1 kts 207°
2026-05-01 13:42 53.77274 -3.03012 31 ft 8 kts 160°
2026-05-01 13:42 53.77192 -3.02962 31 ft 17 kts 141°
2026-05-01 13:42 53.77165 -3.02709 29 ft 28 kts 95°
2026-05-01 13:42 53.77129 -3.02446 30 ft 17 kts 206°
2026-05-01 13:43 53.77129 -3.02518 30 ft 0 kts 272°
2026-05-01 13:45 53.77129 -3.02521 30 ft 0 kts 271°
2026-05-01 13:45 53.77133 -3.02582 30 ft 26 kts 276°
2026-05-01 13:45 53.77164 -3.03213 33 ft 79 kts 275°
2026-05-01 13:45 53.77193 -3.04293 188 ft 99 kts 276°
2026-05-01 13:46 53.77189 -3.05427 568 ft 95 kts 274°
2026-05-01 13:46 53.76861 -3.06368 932 ft 104 kts 217°
2026-05-01 13:46 53.76124 -3.06347 1298 ft 117 kts 157°
2026-05-01 13:46 53.75468 -3.05527 1707 ft 113 kts 143°
2026-05-01 13:47 53.74868 -3.04688 2002 ft 121 kts 143°
2026-05-01 13:47 53.74191 -3.03785 2201 ft 124 kts 146°
2026-05-01 13:47 53.73472 -3.03004 2280 ft 127 kts 152°
2026-05-01 13:47 53.72703 -3.02319 2431 ft 122 kts 158°
2026-05-01 13:48 53.71901 -3.01903 2540 ft 120 kts 166°
2026-05-01 13:48 53.71093 -3.01537 2649 ft 121 kts 166°
2026-05-01 13:48 53.70246 -3.01278 2662 ft 127 kts 171°
2026-05-01 13:48 53.69384 -3.01027 2701 ft 125 kts 171°
2026-05-01 13:49 53.68509 -3.00835 2678 ft 130 kts 174°
2026-05-01 13:49 53.67589 -3.00679 2552 ft 136 kts 174°
2026-05-01 13:49 53.66663 -3.00510 2544 ft 134 kts 173°
2026-05-01 13:49 53.65712 -3.00355 2400 ft 142 kts 174°
2026-05-01 13:50 53.64729 -3.00127 2310 ft 143 kts 169°
2026-05-01 13:50 53.63755 -2.99753 2228 ft 144 kts 168°
2026-05-01 13:50 53.62788 -2.99284 2149 ft 144 kts 162°
2026-05-01 13:50 53.61853 -2.98651 2080 ft 146 kts 159°
2026-05-01 13:51 53.60924 -2.98012 2090 ft 142 kts 159°
2026-05-01 13:51 53.60003 -2.97331 1978 ft 148 kts 157°
2026-05-01 13:51 53.59061 -2.96610 1889 ft 149 kts 157°
2026-05-01 13:51 53.58107 -2.95887 1787 ft 151 kts 157°
2026-05-01 13:52 53.57161 -2.95174 1703 ft 151 kts 157°
2026-05-01 13:52 53.56211 -2.94458 1645 ft 150 kts 157°
2026-05-01 13:52 53.55243 -2.93731 1508 ft 154 kts 157°
2026-05-01 13:52 53.54263 -2.92997 1378 ft 156 kts 157°
2026-05-01 13:53 53.53254 -2.92237 1190 ft 160 kts 157°
2026-05-01 13:53 53.51232 -2.90694 898 ft 160 kts 157°
2026-05-01 13:53 53.50222 -2.89895 855 ft 158 kts 156°
2026-05-01 13:54 53.49224 -2.89112 764 ft 159 kts 157°
2026-05-01 13:54 53.48210 -2.88314 684 ft 161 kts 156°
2026-05-01 13:54 53.47195 -2.87558 678 ft 156 kts 163°
2026-05-01 13:54 53.46190 -2.87211 887 ft 143 kts 171°
2026-05-01 13:55 53.45238 -2.86901 1001 ft 139 kts 171°
2026-05-01 13:55 53.44330 -2.86611 1204 ft 131 kts 171°
2026-05-01 13:55 53.43430 -2.86332 1271 ft 135 kts 171°
2026-05-01 13:55 53.42521 -2.86056 1415 ft 131 kts 171°
2026-05-01 13:56 53.41616 -2.85784 1492 ft 133 kts 171°
2026-05-01 13:56 53.40703 -2.85512 1573 ft 133 kts 171°
2026-05-01 13:56 53.39799 -2.85245 1698 ft 131 kts 171°
2026-05-01 13:56 53.38876 -2.85106 1745 ft 134 kts 180°
2026-05-01 13:57 53.37971 -2.85073 1900 ft 128 kts 178°
2026-05-01 13:57 53.37370 -2.85050 1923 ft 132 kts 179°
2026-05-01 13:57 53.36091 -2.85053 1873 ft 142 kts 182°
2026-05-01 13:57 53.35109 -2.85063 1931 ft 140 kts 176°
2026-05-01 13:58 53.34148 -2.84857 1933 ft 141 kts 173°
2026-05-01 13:58 53.33149 -2.84670 1860 ft 145 kts 175°
2026-05-01 13:58 53.32155 -2.84510 1782 ft 147 kts 175°
2026-05-01 13:58 53.31110 -2.84353 1702 ft 147 kts 176°
2026-05-01 13:59 53.30172 -2.84206 2027 ft 131 kts 174°
2026-05-01 13:59 53.29211 -2.84060 1959 ft 142 kts 175°
2026-05-01 13:59 53.28225 -2.83913 1834 ft 146 kts 175°
2026-05-01 13:59 53.27225 -2.83760 1865 ft 142 kts 175°
2026-05-01 14:00 53.26241 -2.83609 1848 ft 143 kts 175°
2026-05-01 14:00 53.25235 -2.83458 1783 ft 146 kts 175°
2026-05-01 14:00 53.24230 -2.83305 1769 ft 145 kts 175°
2026-05-01 14:00 53.23228 -2.83151 1756 ft 145 kts 175°
2026-05-01 14:01 53.22228 -2.83003 1744 ft 144 kts 175°
2026-05-01 14:01 53.21221 -2.82851 1683 ft 147 kts 175°
2026-05-01 14:01 53.20204 -2.82697 1662 ft 146 kts 175°
2026-05-01 14:01 53.19194 -2.82542 1642 ft 146 kts 175°
2026-05-01 14:02 53.18184 -2.82391 1635 ft 145 kts 176°
2026-05-01 14:02 53.17183 -2.82245 1626 ft 144 kts 176°
2026-05-01 14:02 53.16181 -2.82093 1590 ft 145 kts 176°
2026-05-01 14:02 53.15174 -2.81942 1557 ft 146 kts 176°
2026-05-01 14:03 53.14160 -2.81788 1539 ft 146 kts 175°
2026-05-01 14:03 53.13153 -2.81634 1563 ft 144 kts 176°
2026-05-01 14:03 53.12174 -2.81487 1648 ft 138 kts 176°
2026-05-01 14:03 53.11183 -2.81338 1537 ft 146 kts 176°
2026-05-01 14:04 53.10204 -2.81191 1587 ft 141 kts 176°
2026-05-01 14:04 53.09222 -2.81043 1561 ft 143 kts 176°
2026-05-01 14:04 53.08234 -2.80893 1544 ft 142 kts 176°
2026-05-01 14:04 53.07567 -2.80792 1545 ft 142 kts 176°
2026-05-01 14:05 53.06255 -2.80593 1542 ft 143 kts 176°
2026-05-01 14:05 53.05269 -2.80445 1535 ft 142 kts 176°
2026-05-01 14:05 53.04276 -2.80298 1513 ft 143 kts 176°
2026-05-01 14:05 53.03284 -2.80147 1518 ft 143 kts 176°
2026-05-01 14:06 53.02292 -2.79998 1525 ft 143 kts 176°
2026-05-01 14:06 53.01301 -2.79850 1554 ft 142 kts 176°
2026-05-01 14:06 53.00317 -2.79703 1569 ft 142 kts 176°
2026-05-01 14:06 52.99326 -2.79553 1562 ft 143 kts 176°
2026-05-01 14:07 52.98351 -2.79406 1592 ft 142 kts 176°
2026-05-01 14:07 52.97367 -2.79260 1563 ft 143 kts 177°
2026-05-01 14:07 52.96367 -2.79106 1503 ft 144 kts 178°
2026-05-01 14:08 52.94405 -2.78873 1492 ft 139 kts 180°
2026-05-01 14:08 52.93450 -2.78824 1438 ft 137 kts 181°
2026-05-01 14:08 52.92510 -2.78814 1312 ft 132 kts 183°
2026-05-01 14:08 52.91615 -2.78867 1241 ft 126 kts 186°
2026-05-01 14:09 52.90745 -2.78903 1198 ft 124 kts 182°
2026-05-01 14:09 52.89885 -2.78895 1161 ft 122 kts 182°
2026-05-01 14:09 52.89043 -2.78853 1096 ft 120 kts 178°
2026-05-01 14:09 52.88229 -2.78630 1027 ft 118 kts 172°
2026-05-01 14:10 52.87415 -2.78321 956 ft 121 kts 172°
2026-05-01 14:10 52.86641 -2.78030 1026 ft 110 kts 172°
2026-05-01 14:10 52.85911 -2.77808 1059 ft 103 kts 175°
2026-05-01 14:10 52.85194 -2.77690 1062 ft 103 kts 180°
2026-05-01 14:11 52.84482 -2.77678 1080 ft 100 kts 191°
2026-05-01 14:11 52.83218 -2.78388 1117 ft 99 kts 191°
2026-05-01 14:11 52.82520 -2.78094 1036 ft 109 kts 153°
2026-05-01 14:12 52.82093 -2.77070 1025 ft 114 kts 106°
2026-05-01 14:12 52.82259 -2.75844 990 ft 111 kts 54°
2026-05-01 14:12 52.82742 -2.74878 943 ft 107 kts 46°
2026-05-01 14:12 52.83222 -2.73979 844 ft 102 kts 46°
2026-05-01 14:13 52.83748 -2.73425 718 ft 87 kts
2026-05-01 14:13 52.84115 -2.73554 690 ft 78 kts 320°
2026-05-01 14:13 52.84600 -2.74451 640 ft 80 kts 298°
2026-05-01 14:13 52.84539 -2.75253 544 ft 77 kts 229°
2026-05-01 14:14 52.84156 -2.75893 424 ft 78 kts 228°
2026-05-01 14:14 52.83787 -2.76514 294 ft 73 kts 229°
2026-05-01 14:14 52.83481 -2.77030 275 ft 50 kts 225°
2026-05-01 14:14 52.83284 -2.77358 272 ft 34 kts 226°
2026-05-01 14:15 52.83143 -2.77586 273 ft 15 kts 218°
2026-05-01 14:15 52.83086 -2.77649 274 ft 8 kts 198°
2026-05-01 14:15 52.83037 -2.77722 274 ft 11 kts 228°
2026-05-01 14:15 52.82989 -2.77830 274 ft 11 kts 293°
2026-05-01 14:16 52.83031 -2.77790 274 ft 8 kts 57°
2026-05-01 14:16 52.83037 -2.77776 274 ft 0 kts 56°
2026-05-01 14:16 52.83220 -2.77460 271 ft 77 kts 43°
2026-05-01 14:16 52.83631 -2.76754 275 ft 71 kts 49°
2026-05-01 14:17 52.83727 -2.76122 277 ft 32 kts 87°
2026-05-01 14:17 52.83738 -2.76025 277 ft 4 kts 277°
2026-05-01 14:17 52.83738 -2.76030 277 ft 0 kts 268°